30 de Agosto, Argentina
Current Conditions -  °F | °C
As of 3:00 AM on Thursday 23 Oct 2014 (Local Time) from SAOC Reporting Station
Clear Clear  
Wind Chill: 70°   Ceiling: Unl
Heat Index: 70°   Visibility: 6mi
Dew Point: 52°   Wind: 9mph
Humidity: 53%   Direction: 320°NW
Pressure: 29.91"   Gusts: NA
Location:  36.27°S, 62.55°W
Report Text: SAOC 230600Z 32008KT CAVOK 21/11 Q1013
Loading
Personal Weather Stations






























Interactive Weather Map
Tropical Storm Tracking
New forecast layout! Learn more

10-Day Weather Forecast

Advertisements
Track Severe Weather on mobile